Time,TemperatureF,DewpointF,PressureIn,WindDirection,WindDirectionDegrees,WindSpeedMPH,WindSpeedGustMPH,Humidity,HourlyPrecipIn,Conditions,Clouds,dailyrainin,SolarRadiationWatts/m^2,SoftwareType,DateUTC
2013-03-12 00:00:00,48.0,19.0,-100.00,NNW,340,0.0,4.0,31,0.00,,,0.00,0.000000,,2013-03-12 07:00:00,
2013-03-12 00:32:00,48.0,19.0,-100.00,NNW,340,0.0,4.0,31,0.00,,,0.00,0.000000,,2013-03-12 07:32:00,
2013-03-12 00:42:00,48.0,19.0,-100.00,NNW,340,0.0,4.0,31,0.00,,,0.00,0.000000,,2013-03-12 07:42:00,
2013-03-12 00:52:00,48.0,19.0,-100.00,NNW,340,0.0,4.0,31,0.00,,,0.00,0.000000,,2013-03-12 07:52:00,
2013-03-12 01:00:00,49.0,20.0,-100.00,North,8,0.0,3.0,32,0.00,,,0.00,0.000000,,2013-03-12 08:00:00,
2013-03-12 01:33:00,49.0,20.0,-100.00,North,8,0.0,3.0,32,0.00,,,0.00,0.000000,,2013-03-12 08:33:00,
2013-03-12 01:42:00,49.0,20.0,-100.00,North,8,0.0,3.0,32,0.00,,,0.00,0.000000,,2013-03-12 08:42:00,
2013-03-12 01:52:00,49.0,20.0,-100.00,North,8,0.0,3.0,32,0.00,,,0.00,0.000000,,2013-03-12 08:52:00,
2013-03-12 02:00:00,48.0,16.0,-100.00,WSW,249,3.0,3.0,27,0.00,,,-99.99,0.000000,,2013-03-12 09:00:00,
2013-03-12 02:22:00,48.0,16.0,-100.00,WSW,249,3.0,3.0,27,0.00,,,-99.99,0.000000,,2013-03-12 09:22:00,
2013-03-12 02:33:00,48.0,16.0,-100.00,WSW,249,3.0,3.0,27,0.00,,,-99.99,0.000000,,2013-03-12 09:33:00,
2013-03-12 02:42:00,48.0,16.0,-100.00,WSW,249,3.0,3.0,27,0.00,,,-99.99,0.000000,,2013-03-12 09:42:00,
2013-03-12 02:52:00,48.0,16.0,-100.00,WSW,249,3.0,3.0,27,0.00,,,-99.99,0.000000,,2013-03-12 09:52:00,
2013-03-12 03:00:00,50.0,20.0,-100.00,North,0,1.0,4.0,30,0.00,,,0.00,0.000000,,2013-03-12 10:00:00,
2013-03-12 03:33:00,50.0,20.0,-100.00,North,0,1.0,4.0,30,0.00,,,0.00,0.000000,,2013-03-12 10:33:00,
2013-03-12 03:42:00,50.0,20.0,-100.00,North,0,1.0,4.0,30,0.00,,,0.00,0.000000,,2013-03-12 10:42:00,
2013-03-12 03:52:00,50.0,20.0,-100.00,North,0,1.0,4.0,30,0.00,,,0.00,0.000000,,2013-03-12 10:52:00,
2013-03-12 04:00:00,48.0,19.0,-100.00,North,11,1.0,6.0,31,0.00,,,0.00,0.000000,,2013-03-12 11:00:00,
2013-03-12 04:22:00,48.0,19.0,-100.00,North,11,1.0,6.0,31,0.00,,,0.00,0.000000,,2013-03-12 11:22:00,
2013-03-12 04:32:00,48.0,19.0,-100.00,North,11,1.0,6.0,31,0.00,,,0.00,0.000000,,2013-03-12 11:32:00,
2013-03-12 04:42:00,48.0,19.0,-100.00,North,11,1.0,6.0,31,0.00,,,0.00,0.000000,,2013-03-12 11:42:00,
2013-03-12 04:52:00,48.0,19.0,-100.00,North,11,1.0,6.0,31,0.00,,,0.00,0.000000,,2013-03-12 11:52:00,
2013-03-12 05:00:00,47.0,20.0,-100.00,SW,226,0.0,3.0,34,0.00,,,0.00,0.000000,,2013-03-12 12:00:00,
2013-03-12 05:32:00,47.0,20.0,-100.00,SW,226,0.0,3.0,34,0.00,,,0.00,0.000000,,2013-03-12 12:32:00,
2013-03-12 05:42:00,47.0,20.0,-100.00,SW,226,0.0,3.0,34,0.00,,,0.00,0.000000,,2013-03-12 12:42:00,
2013-03-12 05:52:00,47.0,20.0,-100.00,SW,226,0.0,3.0,34,0.00,,,0.00,0.000000,,2013-03-12 12:52:00,
2013-03-12 06:00:00,47.0,9.0,-100.00,SW,226,0.0,2.0,21,0.00,,,0.00,0.000000,,2013-03-12 13:00:00,
2013-03-12 06:33:00,47.0,9.0,-100.00,SW,226,0.0,2.0,21,0.00,,,0.00,0.000000,,2013-03-12 13:33:00,
2013-03-12 06:43:00,47.0,9.0,-100.00,SW,226,0.0,2.0,21,0.00,,,0.00,0.000000,,2013-03-12 13:43:00,
2013-03-12 06:52:00,47.0,9.0,-100.00,SW,226,0.0,2.0,21,0.00,,,0.00,0.000000,,2013-03-12 13:52:00,
2013-03-12 07:00:00,47.0,7.0,-100.00,SW,217,1.0,3.0,19,0.00,,,0.00,0.000000,,2013-03-12 14:00:00,
2013-03-12 07:33:00,47.0,7.0,-100.00,SW,217,1.0,3.0,19,0.00,,,0.00,0.000000,,2013-03-12 14:33:00,
2013-03-12 07:42:00,47.0,7.0,-100.00,SW,217,1.0,3.0,19,0.00,,,0.00,0.000000,,2013-03-12 14:42:00,
2013-03-12 07:53:00,47.0,7.0,-100.00,SW,217,1.0,3.0,19,0.00,,,0.00,0.000000,,2013-03-12 14:53:00,
2013-03-12 08:00:00,50.0,4.0,-100.00,NNW,335,0.0,3.0,15,0.00,,,0.00,0.000000,,2013-03-12 15:00:00,
2013-03-12 08:32:00,50.0,4.0,-100.00,NNW,335,0.0,3.0,15,0.00,,,0.00,0.000000,,2013-03-12 15:32:00,
2013-03-12 08:42:00,50.0,4.0,-100.00,NNW,335,0.0,3.0,15,0.00,,,0.00,0.000000,,2013-03-12 15:42:00,
2013-03-12 08:53:00,50.0,4.0,-100.00,NNW,335,0.0,3.0,15,0.00,,,0.00,0.000000,,2013-03-12 15:53:00,
2013-03-12 09:00:00,52.0,3.0,-100.00,East,92,2.0,4.0,13,0.00,,,0.00,16.000000,,2013-03-12 16:00:00,
2013-03-12 09:33:00,52.0,3.0,-100.00,East,92,2.0,4.0,13,0.00,,,0.00,16.000000,,2013-03-12 16:33:00,
2013-03-12 09:43:00,52.0,3.0,-100.00,East,92,2.0,4.0,13,0.00,,,0.00,16.000000,,2013-03-12 16:43:00,
2013-03-12 09:52:00,52.0,3.0,-100.00,East,92,2.0,4.0,13,0.00,,,0.00,16.000000,,2013-03-12 16:52:00,
2013-03-12 10:00:00,62.0,7.0,-100.00,ESE,114,3.0,5.0,11,0.00,,,0.00,211.000000,,2013-03-12 17:00:00,
2013-03-12 10:34:00,62.0,7.0,-100.00,ESE,114,3.0,5.0,11,0.00,,,0.00,211.000000,,2013-03-12 17:34:00,
2013-03-12 10:44:00,62.0,7.0,-100.00,ESE,114,3.0,5.0,11,0.00,,,0.00,211.000000,,2013-03-12 17:44:00,
2013-03-12 10:53:00,62.0,7.0,-100.00,ESE,114,3.0,5.0,11,0.00,,,0.00,211.000000,,2013-03-12 17:53:00,
2013-03-12 11:00:00,66.0,6.0,-100.00,ESE,116,4.0,10.0,9,0.00,,,0.00,296.000000,,2013-03-12 18:00:00,
2013-03-12 11:33:00,66.0,6.0,-100.00,ESE,116,4.0,10.0,9,0.00,,,0.00,296.000000,,2013-03-12 18:33:00,
2013-03-12 11:43:00,66.0,6.0,-100.00,ESE,116,4.0,10.0,9,0.00,,,0.00,296.000000,,2013-03-12 18:43:00,
2013-03-12 11:53:00,66.0,6.0,-100.00,ESE,116,4.0,10.0,9,0.00,,,0.00,296.000000,,2013-03-12 18:53:00,
2013-03-12 12:00:00,70.0,9.0,-100.00,ESE,114,4.0,12.0,9,0.00,,,0.00,720.000000,,2013-03-12 19:00:00,
2013-03-12 12:33:00,70.0,9.0,-100.00,ESE,114,4.0,12.0,9,0.00,,,0.00,720.000000,,2013-03-12 19:33:00,
2013-03-12 12:43:00,70.0,9.0,-100.00,ESE,114,4.0,12.0,9,0.00,,,0.00,720.000000,,2013-03-12 19:43:00,
2013-03-12 12:53:00,70.0,9.0,-100.00,ESE,114,4.0,12.0,9,0.00,,,0.00,720.000000,,2013-03-12 19:53:00,
2013-03-12 13:00:00,70.0,6.0,-100.00,NNW,328,3.0,11.0,8,0.00,,,0.00,880.000000,,2013-03-12 20:00:00,
2013-03-12 13:33:00,70.0,6.0,-100.00,NNW,328,3.0,11.0,8,0.00,,,0.00,880.000000,,2013-03-12 20:33:00,
2013-03-12 13:42:00,70.0,6.0,-100.00,NNW,328,3.0,11.0,8,0.00,,,0.00,880.000000,,2013-03-12 20:42:00,
2013-03-12 13:53:00,70.0,6.0,-100.00,NNW,328,3.0,11.0,8,0.00,,,0.00,880.000000,,2013-03-12 20:53:00,
2013-03-12 14:00:00,72.0,10.0,-100.00,SSW,193,4.0,10.0,9,0.00,,,0.00,956.000000,,2013-03-12 21:00:00,
2013-03-12 14:33:00,72.0,10.0,-100.00,SSW,193,4.0,10.0,9,0.00,,,0.00,956.000000,,2013-03-12 21:33:00,
2013-03-12 14:43:00,72.0,10.0,-100.00,SSW,193,4.0,10.0,9,0.00,,,0.00,956.000000,,2013-03-12 21:43:00,
2013-03-12 14:52:00,72.0,10.0,-100.00,SSW,193,4.0,10.0,9,0.00,,,0.00,956.000000,,2013-03-12 21:52:00,
2013-03-12 15:00:00,73.0,11.0,-100.00,ESE,114,4.0,9.0,9,0.00,,,0.00,960.000000,,2013-03-12 22:00:00,
2013-03-12 15:33:00,73.0,11.0,-100.00,ESE,114,4.0,9.0,9,0.00,,,0.00,960.000000,,2013-03-12 22:33:00,
2013-03-12 15:43:00,73.0,11.0,-100.00,ESE,114,4.0,9.0,9,0.00,,,0.00,960.000000,,2013-03-12 22:43:00,
2013-03-12 15:53:00,73.0,11.0,-100.00,ESE,114,4.0,9.0,9,0.00,,,0.00,960.000000,,2013-03-12 22:53:00,
2013-03-12 16:00:00,72.0,10.0,-100.00,East,101,2.0,11.0,9,0.00,,,0.00,892.000000,,2013-03-12 23:00:00,
2013-03-12 16:34:00,72.0,10.0,-100.00,East,101,2.0,11.0,9,0.00,,,0.00,892.000000,,2013-03-12 23:34:00,
2013-03-12 16:43:00,72.0,10.0,-100.00,East,101,2.0,11.0,9,0.00,,,0.00,892.000000,,2013-03-12 23:43:00,
2013-03-12 16:52:00,72.0,10.0,-100.00,East,101,2.0,11.0,9,0.00,,,0.00,892.000000,,2013-03-12 23:52:00,
2013-03-12 17:00:00,73.0,11.0,-100.00,SE,141,3.0,9.0,9,0.00,,,0.00,755.000000,,2013-03-13 00:00:00,
2013-03-12 17:33:00,73.0,11.0,-100.00,SE,141,3.0,9.0,9,0.00,,,0.00,755.000000,,2013-03-13 00:33:00,
2013-03-12 17:42:00,73.0,11.0,-100.00,SE,141,3.0,9.0,9,0.00,,,0.00,755.000000,,2013-03-13 00:42:00,
2013-03-12 17:53:00,73.0,11.0,-100.00,SE,141,3.0,9.0,9,0.00,,,0.00,755.000000,,2013-03-13 00:53:00,
2013-03-12 18:33:00,72.0,15.0,-100.00,West,280,1.0,10.0,11,-99.99,,,0.00,563.000000,,2013-03-13 01:33:00,
2013-03-12 18:43:00,72.0,15.0,-100.00,West,280,1.0,10.0,11,-99.99,,,0.00,563.000000,,2013-03-13 01:43:00,
2013-03-12 18:52:00,72.0,15.0,-100.00,West,280,1.0,10.0,11,-99.99,,,0.00,563.000000,,2013-03-13 01:52:00,
2013-03-12 19:33:00,69.0,18.0,-100.00,SW,225,3.0,10.0,14,-99.99,,,0.00,328.000000,,2013-03-13 02:33:00,
2013-03-12 20:00:00,59.0,13.0,-100.00,SSW,197,1.0,7.0,16,-99.99,,,0.00,48.000000,,2013-03-13 03:00:00,
2013-03-12 20:32:00,59.0,13.0,-100.00,SSW,197,1.0,7.0,16,-99.99,,,0.00,48.000000,,2013-03-13 03:32:00,
2013-03-12 20:42:00,59.0,13.0,-100.00,SSW,197,1.0,7.0,16,-99.99,,,0.00,48.000000,,2013-03-13 03:42:00,
2013-03-12 20:52:00,59.0,13.0,-100.00,SSW,197,1.0,7.0,16,-99.99,,,0.00,48.000000,,2013-03-13 03:52:00,
2013-03-12 21:00:00,57.0,11.0,-100.00,SW,221,0.0,5.0,16,0.00,,,0.00,0.000000,,2013-03-13 04:00:00,
2013-03-12 21:32:00,57.0,11.0,-100.00,SW,221,0.0,5.0,16,0.00,,,0.00,0.000000,,2013-03-13 04:32:00,
2013-03-12 21:43:00,57.0,11.0,-100.00,SW,221,0.0,5.0,16,0.00,,,0.00,0.000000,,2013-03-13 04:43:00,
2013-03-12 21:53:00,57.0,11.0,-100.00,SW,221,0.0,5.0,16,0.00,,,0.00,0.000000,,2013-03-13 04:53:00,
2013-03-12 22:00:00,56.0,12.0,-100.00,West,267,1.0,4.0,17,0.00,,,0.00,0.000000,,2013-03-13 05:00:00,
2013-03-12 22:32:00,56.0,12.0,-100.00,West,267,1.0,4.0,17,0.00,,,0.00,0.000000,,2013-03-13 05:32:00,
2013-03-12 22:42:00,56.0,12.0,-100.00,West,267,1.0,4.0,17,0.00,,,0.00,0.000000,,2013-03-13 05:42:00,
2013-03-12 22:52:00,56.0,12.0,-100.00,West,267,1.0,4.0,17,0.00,,,0.00,0.000000,,2013-03-13 05:52:00,
2013-03-12 23:00:00,56.0,12.0,-100.00,WNW,282,0.0,2.0,17,0.00,,,0.00,0.000000,,2013-03-13 06:00:00,
2013-03-12 23:33:00,56.0,12.0,-100.00,WNW,282,0.0,2.0,17,0.00,,,0.00,0.000000,,2013-03-13 06:33:00,
2013-03-12 23:42:00,56.0,12.0,-100.00,WNW,282,0.0,2.0,17,0.00,,,0.00,0.000000,,2013-03-13 06:42:00,
2013-03-12 23:52:00,56.0,12.0,-100.00,WNW,282,0.0,2.0,17,0.00,,,0.00,0.000000,,2013-03-13 06:52:00,